Time;durP1;ratioP1;P1;durP2;ratioP2;P2;SDS_P1;SDS_P2;PMS_P1;PMS_P2;Temp;Humidity;BMP_temperature;BMP_pressure;BME280_temperature;BME280_humidity;BME280_pressure;Samples;Min_cycle;Max_cycle;Signal;HPM_P1;HPM_P2
2022/07/09 00:00:51;;;;;;;1999.90;999.90;;;;;;;14.86;73.93;100477.81;8254990;28;20197;-77
2022/07/09 00:04:52;;;;;;;1999.90;999.90;;;;;;;14.77;73.96;100473.50;8249445;28;20575;-78
2022/07/09 00:08:54;;;;;;;1999.90;999.90;;;;;;;14.67;74.57;100471.78;8270031;28;20505;-77
2022/07/09 00:12:55;;;;;;;1999.90;999.90;;;;;;;14.57;74.75;100466.63;8250743;28;20359;-77
2022/07/09 00:16:57;;;;;;;1999.90;999.90;;;;;;;14.41;75.45;100469.25;8256683;28;20426;-76
2022/07/09 00:20:58;;;;;;;1999.90;999.90;;;;;;;14.38;75.75;100471.88;8272363;28;20078;-76
2022/07/09 00:25:01;;;;;;;1999.90;999.90;;;;;;;14.35;76.05;100469.22;8251606;28;20067;-76
2022/07/09 00:29:02;;;;;;;1999.90;999.90;;;;;;;14.30;76.39;100471.00;8254487;28;20584;-77
2022/07/09 00:33:04;;;;;;;1999.90;999.90;;;;;;;14.24;76.16;100471.03;8249737;28;20038;-76
2022/07/09 00:37:05;;;;;;;1999.90;999.90;;;;;;;14.18;76.30;100468.41;8256757;28;20304;-77
2022/07/09 00:41:07;;;;;;;1999.90;999.90;;;;;;;14.13;77.35;100462.31;8268970;28;20410;-76
2022/07/09 00:45:08;;;;;;;1999.90;999.90;;;;;;;14.01;77.22;100462.38;8269029;28;20038;-76
2022/07/09 00:49:10;;;;;;;1999.90;999.90;;;;;;;13.86;77.95;100456.28;8263972;28;20053;-76
2022/07/09 00:53:14;;;;;;;1999.90;999.90;;;;;;;13.86;77.96;100450.19;8251698;28;20064;-76
2022/07/09 00:57:19;;;;;;;1999.90;999.90;;;;;;;13.79;78.41;100448.44;8267608;28;20091;-76
2022/07/09 01:01:21;;;;;;;1999.90;999.90;;;;;;;13.75;78.27;100446.69;8268959;28;20049;-76
2022/07/09 01:05:22;;;;;;;1999.90;999.90;;;;;;;13.70;78.50;100443.22;8246990;28;20133;-77
2022/07/09 01:09:28;;;;;;;1999.90;999.90;;;;;;;13.64;79.07;100438.00;8249986;28;20443;-76
2022/07/09 01:13:30;;;;;;;1999.90;999.90;;;;;;;13.48;79.12;100442.34;8272463;28;20038;-76
2022/07/09 01:17:39;;;;;;;1999.90;999.90;;;;;;;13.39;79.72;100435.38;8249929;28;20129;-76
2022/07/09 01:21:40;;;;;;;1999.90;999.90;;;;;;;13.37;80.40;100444.06;8248146;28;20369;-76
2022/07/09 01:25:45;;;;;;;1999.90;999.90;;;;;;;13.36;80.33;100440.59;8259721;28;20042;-77
2022/07/09 01:29:49;;;;;;;1999.90;999.90;;;;;;;13.32;80.33;100435.38;8266003;28;20046;-76
2022/07/09 01:33:50;;;;;;;1999.90;999.90;;;;;;;13.24;80.24;100422.31;8234394;28;20566;-77
2022/07/09 01:37:53;;;;;;;1999.90;999.90;;;;;;;13.22;80.80;100421.44;8266314;28;20042;-77
2022/07/09 01:41:55;;;;;;;1999.90;999.90;;;;;;;13.08;80.66;100415.28;8238561;28;20069;-76
2022/07/09 01:45:57;;;;;;;1999.90;999.90;;;;;;;13.01;80.91;100415.28;8252567;28;20121;-76
2022/07/09 01:49:58;;;;;;;1999.90;999.90;;;;;;;12.94;81.47;100413.56;8244179;28;20116;-77
2022/07/09 01:54:00;;;;;;;1999.90;999.90;;;;;;;12.92;81.57;100412.66;8270308;28;20069;-76
2022/07/09 01:58:01;;;;;;;1999.90;999.90;;;;;;;12.87;81.76;100411.78;8263901;28;20041;-76
2022/07/09 02:02:04;;;;;;;1999.90;999.90;;;;;;;12.79;81.99;100412.63;8271291;28;20037;-77
2022/07/09 02:06:06;;;;;;;1999.90;999.90;;;;;;;12.70;82.03;100414.34;8285295;28;20072;-76
2022/07/09 02:10:08;;;;;;;1999.90;999.90;;;;;;;12.74;82.47;100419.56;8284556;28;20129;-76
2022/07/09 02:14:09;;;;;;;1999.90;999.90;;;;;;;12.67;82.61;100413.47;8298953;28;20338;-76
2022/07/09 02:18:12;;;;;;;1999.90;999.90;;;;;;;12.64;82.94;100413.44;8272646;28;20124;-76
2022/07/09 02:22:14;;;;;;;1999.90;999.90;;;;;;;12.60;83.06;100412.56;8289056;28;20037;-76
2022/07/09 02:26:15;;;;;;;1999.90;999.90;;;;;;;12.62;82.88;100407.38;8304881;28;20129;-76
2022/07/09 02:30:17;;;;;;;1999.90;999.90;;;;;;;12.56;82.73;100405.59;8280635;28;20137;-77
2022/07/09 02:34:19;;;;;;;1999.90;999.90;;;;;;;12.52;82.57;100416.00;8301511;28;20041;-76
2022/07/09 02:38:21;;;;;;;1999.90;999.90;;;;;;;12.47;82.45;100410.78;8296510;28;20084;-76
2022/07/09 02:42:23;;;;;;;1999.90;999.90;;;;;;;12.33;83.29;100415.91;8297112;28;20105;-76
2022/07/09 02:46:24;;;;;;;1999.90;999.90;;;;;;;12.30;83.36;100417.66;8259670;28;20125;-76
2022/07/09 02:50:26;;;;;;;1999.90;999.90;;;;;;;12.28;83.72;100424.59;8278651;28;21787;-76
2022/07/09 02:54:28;;;;;;;1999.90;999.90;;;;;;;12.23;83.82;100421.97;8301427;28;20038;-76
2022/07/09 02:58:31;;;;;;;1999.90;999.90;;;;;;;12.09;84.44;100421.88;8296294;28;20302;-76
2022/07/09 03:02:33;;;;;;;1999.90;999.90;;;;;;;12.12;84.14;100420.16;8295633;28;20079;-76
2022/07/09 03:06:35;;;;;;;1999.90;999.90;;;;;;;12.06;84.48;100423.59;8287401;28;20056;-75
2022/07/09 03:10:36;;;;;;;1999.90;999.90;;;;;;;11.99;84.96;100427.88;8273173;28;20754;-76
2022/07/09 03:14:38;;;;;;;1999.90;999.90;;;;;;;12.01;85.53;100420.06;8276612;28;20125;-75
2022/07/09 03:18:39;;;;;;;1999.90;999.90;;;;;;;12.02;84.99;100422.69;8280934;28;20045;-76
2022/07/09 03:22:41;;;;;;;1999.90;999.90;;;;;;;11.95;84.74;100418.31;8255210;28;20078;-76
2022/07/09 03:26:43;;;;;;;1999.90;999.90;;;;;;;11.93;85.25;100424.38;8262575;28;20026;-75
2022/07/09 03:30:44;;;;;;;1999.90;999.90;;;;;;;11.88;85.56;100424.34;8264287;28;20056;-75
2022/07/09 03:34:46;;;;;;;1999.90;999.90;;;;;;;11.80;85.71;100419.06;8275756;28;20057;-77
2022/07/09 03:38:47;;;;;;;1999.90;999.90;;;;;;;11.78;85.78;100418.19;8244953;28;20072;-77
2022/07/09 03:42:49;;;;;;;1999.90;999.90;;;;;;;11.82;85.46;100413.88;8277237;28;20506;-77
2022/07/09 03:46:50;;;;;;;1999.90;999.90;;;;;;;11.79;85.58;100419.06;8283758;28;20585;-77
2022/07/09 03:50:52;;;;;;;1999.90;999.90;;;;;;;11.79;85.62;100426.88;8274990;28;20477;-77
2022/07/09 03:54:53;;;;;;;1999.90;999.90;;;;;;;11.74;85.45;100421.59;8243187;28;20134;-77
2022/07/09 03:58:55;;;;;;;1999.90;999.90;;;;;;;11.75;85.87;100431.16;8262002;28;20137;-77
2022/07/09 04:02:56;;;;;;;1999.90;999.90;;;;;;;11.72;85.74;100423.31;8281430;28;20088;-77
2022/07/09 04:06:58;;;;;;;1999.90;999.90;;;;;;;11.69;86.16;100418.09;8239381;28;20042;-77
2022/07/09 04:10:59;;;;;;;1999.90;999.90;;;;;;;11.75;86.68;100418.13;8262204;28;20402;-77
2022/07/09 04:15:01;;;;;;;1999.90;999.90;;;;;;;11.79;86.45;100419.06;8259286;28;20688;-77
2022/07/09 04:19:03;;;;;;;1999.90;999.90;;;;;;;11.90;86.50;100424.34;8250019;28;20041;-77
2022/07/09 04:23:04;;;;;;;1999.90;999.90;;;;;;;12.03;86.59;100423.59;8277608;28;20133;-77
2022/07/09 04:27:06;;;;;;;1999.90;999.90;;;;;;;12.09;86.17;100410.59;8263636;28;20116;-77
2022/07/09 04:31:08;;;;;;;1999.90;999.90;;;;;;;12.18;86.25;100408.03;8266881;28;20049;-77
2022/07/09 04:35:09;;;;;;;1999.90;999.90;;;;;;;12.27;85.89;100415.03;8276523;28;20100;-77
2022/07/09 04:39:11;;;;;;;1999.90;999.90;;;;;;;12.37;85.57;100416.78;8282335;28;20080;-78
2022/07/09 04:43:13;;;;;;;1999.90;999.90;;;;;;;12.50;85.52;100420.34;8280417;28;20054;-78
2022/07/09 04:47:14;;;;;;;1999.90;999.90;;;;;;;12.60;85.11;100406.50;8263449;28;20046;-78
2022/07/09 04:51:15;;;;;;;1999.90;999.90;;;;;;;12.65;84.61;100410.84;8257095;28;20086;-77
2022/07/09 04:55:17;;;;;;;1999.90;999.90;;;;;;;12.78;84.34;100416.97;8260263;28;20108;-78
2022/07/09 04:59:20;;;;;;;1999.90;999.90;;;;;;;12.92;84.27;100419.59;8278486;28;20061;-78
2022/07/09 05:03:21;;;;;;;;;;;;;;;13.15;83.08;100423.16;8281221;28;20498;-76
2022/07/09 05:07:23;;;;;;;1999.90;999.90;;;;;;;13.36;82.82;100422.34;8280713;28;19968;-78
2022/07/09 05:11:25;;;;;;;1999.90;999.90;;;;;;;13.59;81.40;100424.94;8279702;28;20057;-78
2022/07/09 05:15:27;;;;;;;1999.90;999.90;;;;;;;13.75;79.51;100425.81;8242862;28;20385;-78
2022/07/09 05:19:28;;;;;;;1999.90;999.90;;;;;;;13.92;78.80;100416.22;8264790;28;20112;-78
2022/07/09 05:23:30;;;;;;;1999.90;999.90;;;;;;;14.15;78.74;100410.94;8270517;28;20046;-78
2022/07/09 05:27:31;;;;;;;1999.90;999.90;;;;;;;14.36;78.13;100408.28;8272599;28;20046;-77
2022/07/09 05:31:33;;;;;;;1999.90;999.90;;;;;;;14.67;77.44;100416.03;8287606;28;20332;-77
2022/07/09 05:35:36;;;;;;;1999.90;999.90;;;;;;;15.04;76.74;100409.72;8274616;28;20053;-77
2022/07/09 05:39:38;;;;;;;1999.90;999.90;;;;;;;15.37;75.33;100398.16;8262132;28;20042;-77
2022/07/09 05:43:39;;;;;;;1999.90;999.90;;;;;;;15.76;74.19;100408.31;8274836;28;20073;-77
2022/07/09 05:47:41;;;;;;;1999.90;999.90;;;;;;;16.17;73.00;100410.56;8262087;28;20046;-77
2022/07/09 05:51:42;;;;;;;1999.90;999.90;;;;;;;16.54;71.83;100409.25;8270806;28;20314;-77
2022/07/09 05:55:44;;;;;;;1999.90;999.90;;;;;;;17.06;70.06;100405.94;8275353;28;20146;-77
2022/07/09 05:59:46;;;;;;;1999.90;999.90;;;;;;;17.44;68.87;100400.09;8258148;28;20045;-77
2022/07/09 06:03:47;;;;;;;1999.90;999.90;;;;;;;17.87;67.39;100404.66;8280707;28;20052;-77
2022/07/09 06:07:49;;;;;;;1999.90;999.90;;;;;;;18.29;65.43;100409.97;8270941;28;20100;-77
2022/07/09 06:11:51;;;;;;;1999.90;999.90;;;;;;;18.62;64.08;100398.78;8247692;28;20042;-77
2022/07/09 06:15:53;;;;;;;1999.90;999.90;;;;;;;19.17;62.66;100413.38;8275490;28;20125;-77
2022/07/09 06:19:54;;;;;;;1999.90;999.90;;;;;;;19.80;61.21;100414.53;8259674;28;20042;-77
2022/07/09 06:23:57;;;;;;;1999.90;999.90;;;;;;;20.38;58.90;100405.03;8259801;28;20068;-78
2022/07/09 06:27:58;;;;;;;1999.90;999.90;;;;;;;20.99;56.92;100400.59;8272250;28;20038;-78
2022/07/09 06:32:00;;;;;;;1999.90;999.90;;;;;;;21.54;55.52;100401.50;8267078;28;20133;-78
2022/07/09 06:36:02;;;;;;;1999.90;999.90;;;;;;;22.02;53.95;100404.28;8226734;28;20069;-78
2022/07/09 06:40:05;;;;;;;1999.90;999.90;;;;;;;22.42;52.73;100408.16;8246630;28;20081;-78
2022/07/09 06:44:07;;;;;;;1999.90;999.90;;;;;;;22.72;51.91;100406.16;8240942;28;20046;-78
2022/07/09 06:48:09;;;;;;;1999.90;999.90;;;;;;;23.00;50.87;100398.91;8240872;28;20066;-78
2022/07/09 06:52:10;;;;;;;1999.90;999.90;;;;;;;23.16;50.86;100394.75;8242512;28;20462;-78
2022/07/09 06:56:11;;;;;;;1999.90;999.90;;;;;;;23.30;49.27;100396.81;8253655;28;20038;-78
2022/07/09 07:00:14;;;;;;;1999.90;999.90;;;;;;;23.45;48.76;100404.13;8262925;28;20137;-77
2022/07/09 07:04:15;;;;;;;1999.90;999.90;;;;;;;23.64;48.48;100403.41;8265863;28;20385;-77
2022/07/09 07:08:18;;;;;;;1999.90;999.90;;;;;;;24.07;48.15;100403.31;8263903;28;20051;-77
2022/07/09 07:12:19;;;;;;;1999.90;999.90;;;;;;;24.45;47.15;100402.56;8266240;28;20410;-77
2022/07/09 07:16:21;;;;;;;1999.90;999.90;;;;;;;24.65;46.07;100394.53;8257731;28;20451;-77
2022/07/09 07:20:24;;;;;;;;;;;;;;;24.68;45.41;100397.06;8267127;28;20050;-78
2022/07/09 07:24:26;;;;;;;1999.90;999.90;;;;;;;25.03;45.55;100386.59;8266630;28;19925;-77
2022/07/09 07:28:28;;;;;;;;;;;;;;;25.19;44.83;100387.56;8258692;28;20045;-77
2022/07/09 07:32:29;;;;;;;1999.90;999.90;;;;;;;25.38;45.31;100384.88;8253022;28;19922;-77
2022/07/09 07:36:31;;;;;;;1999.90;999.90;;;;;;;25.61;45.06;100382.78;8244286;28;20068;-77
2022/07/09 07:40:32;;;;;;;1999.90;999.90;;;;;;;25.57;43.43;100383.00;8264216;28;20686;-77
2022/07/09 07:44:34;;;;;;;1999.90;999.90;;;;;;;25.89;43.74;100384.94;8262412;28;20077;-77
2022/07/09 07:48:35;;;;;;;1999.90;999.90;;;;;;;25.95;42.02;100382.88;8260414;28;20046;-77
2022/07/09 07:52:37;;;;;;;1999.90;999.90;;;;;;;25.76;42.63;100381.16;8261087;28;20046;-77
2022/07/09 07:56:47;;;;;;;1999.90;999.90;;;;;;;25.74;42.31;100375.06;8262214;28;20042;-78
2022/07/09 08:00:48;;;;;;;1999.90;999.90;;;;;;;25.98;42.19;100375.59;8261288;28;20455;-77
2022/07/09 08:04:50;;;;;;;1999.90;999.90;;;;;;;26.17;42.24;100371.00;8259974;28;20038;-77
2022/07/09 08:08:51;;;;;;;;;;;;;;;26.45;41.25;100372.25;8266025;28;20069;-77
2022/07/09 08:12:53;;;;;;;1999.90;999.90;;;;;;;26.64;40.83;100374.75;8262571;28;19925;-78
2022/07/09 08:16:54;;;;;;;;;;;;;;;26.61;40.17;100373.13;8248191;28;20038;-77
2022/07/09 08:20:56;;;;;;;1999.90;999.90;;;;;;;26.63;40.05;100373.91;8261857;28;19925;-77
2022/07/09 08:24:58;;;;;;;1999.90;999.90;;;;;;;26.86;39.26;100369.09;8276259;28;20141;-77
2022/07/09 08:28:59;;;;;;;;;;;;;;;27.18;39.64;100362.84;8265117;28;20862;-78
2022/07/09 08:33:00;;;;;;;1999.90;999.90;;;;;;;27.26;38.86;100355.22;8264945;28;20048;-77
2022/07/09 08:37:02;;;;;;;1999.90;999.90;;;;;;;27.19;38.16;100356.56;8263897;28;20034;-77
2022/07/09 08:41:05;;;;;;;1999.90;999.90;;;;;;;27.00;38.52;100354.06;8284566;28;20049;-77
2022/07/09 08:45:11;;;;;;;1999.90;999.90;;;;;;;26.93;38.34;100349.13;8276202;28;20034;-78
2022/07/09 08:49:15;;;;;;;1999.90;999.90;;;;;;;27.29;38.00;100355.09;8262181;28;20057;-77
2022/07/09 08:53:18;;;;;;;1999.90;999.90;;;;;;;27.55;36.65;100340.19;8272281;28;20053;-77
2022/07/09 08:57:20;;;;;;;1999.90;999.90;;;;;;;27.81;37.44;100338.66;8278530;28;20400;-77
2022/07/09 09:01:22;;;;;;;1999.90;999.90;;;;;;;27.97;35.58;100336.75;8265495;28;20076;-77
2022/07/09 09:05:24;;;;;;;1999.90;999.90;;;;;;;27.91;35.69;100331.81;8254472;28;20137;-77
2022/07/09 09:09:25;;;;;;;1999.90;999.90;;;;;;;27.44;35.71;100331.09;8251416;28;20142;-77
2022/07/09 09:13:27;;;;;;;;;;;;;;;27.12;37.96;100338.34;8265905;28;20073;-77
2022/07/09 09:17:28;;;;;;;1999.90;999.90;;;;;;;27.45;37.56;100325.66;8260902;28;20012;-77
2022/07/09 09:21:30;;;;;;;1999.90;999.90;;;;;;;27.58;36.19;100324.00;8264772;28;20141;-77
2022/07/09 09:25:31;;;;;;;;;;;;;;;27.25;36.08;100323.31;8268447;28;21232;-77
2022/07/09 09:29:37;;;;;;;1999.90;999.90;;;;;;;26.53;36.35;100319.41;8282287;28;20020;-77
2022/07/09 09:33:38;;;;;;;1999.90;999.90;;;;;;;26.56;37.54;100326.34;8277235;28;20065;-77
2022/07/09 09:37:42;;;;;;;;;;;;;;;27.25;37.31;100313.50;8252095;28;20061;-77
2022/07/09 09:41:52;;;;;;;1999.90;999.90;;;;;;;27.48;36.60;100306.84;8248757;28;19925;-77
2022/07/09 09:45:58;;;;;;;1999.90;999.90;;;;;;;27.96;36.12;100304.81;8261505;28;20042;-77
2022/07/09 09:50:00;;;;;;;1999.90;999.90;;;;;;;27.77;35.10;100310.44;8263527;28;20049;-77
2022/07/09 09:54:04;;;;;;;1999.90;999.90;;;;;;;27.08;37.06;100308.31;8251337;28;20120;-77
2022/07/09 09:58:07;;;;;;;1999.90;999.90;;;;;;;26.53;37.14;100306.06;8266598;28;20117;-76
2022/07/09 10:02:10;;;;;;;1999.90;999.90;;;;;;;26.02;37.73;100305.28;8255862;28;20054;-77
2022/07/09 10:06:11;;;;;;;1999.90;999.90;;;;;;;26.37;38.58;100294.53;8265997;28;20038;-77
2022/07/09 10:10:17;;;;;;;;;;;;;;;27.12;37.57;100291.19;8274463;28;20046;-77
2022/07/09 10:14:24;;;;;;;1999.90;999.90;;;;;;;27.74;36.85;100299.09;8272557;28;19932;-77
2022/07/09 10:18:26;;;;;;;1999.90;999.90;;;;;;;27.66;35.23;100302.25;8259641;28;20049;-77
2022/07/09 10:22:40;;;;;;;1999.90;999.90;;;;;;;27.24;35.69;100300.28;8281986;28;20359;-77
2022/07/09 10:26:42;;;;;;;1999.90;999.90;;;;;;;27.50;36.12;100285.41;8250924;28;20053;-78
2022/07/09 10:30:43;;;;;;;1999.90;999.90;;;;;;;27.98;36.64;100285.09;8262564;28;20080;-77
2022/07/09 10:34:48;;;;;;;1999.90;999.90;;;;;;;28.00;35.64;100276.97;8270780;28;20162;-77
2022/07/09 10:38:57;;;;;;;1999.90;999.90;;;;;;;27.48;36.03;100281.97;8264029;28;20053;-77
2022/07/09 10:43:02;;;;;;;1999.90;999.90;;;;;;;27.56;37.01;100277.88;8270095;28;20057;-77
2022/07/09 10:47:06;;;;;;;1999.90;999.90;;;;;;;27.73;35.19;100276.03;8289224;28;20042;-77
2022/07/09 10:51:15;;;;;;;1999.90;999.90;;;;;;;28.20;33.93;100267.75;8292442;28;20041;-77
2022/07/09 10:55:20;;;;;;;1999.90;999.90;;;;;;;28.31;34.15;100264.41;8269968;28;20362;-77
2022/07/09 10:59:23;;;;;;;1999.90;999.90;;;;;;;28.39;34.53;100254.94;8290586;28;20129;-77
2022/07/09 11:03:26;;;;;;;1999.90;999.90;;;;;;;28.33;34.59;100246.44;8281636;28;20376;-77
2022/07/09 11:07:29;;;;;;;1999.90;999.90;;;;;;;28.35;34.98;100260.56;8252871;28;20532;-78
2022/07/09 11:11:30;;;;;;;1999.90;999.90;;;;;;;28.37;33.72;100248.84;8283050;28;20168;-77
2022/07/09 11:15:34;;;;;;;1999.90;999.90;;;;;;;28.54;33.79;100245.06;8283581;28;20372;-77
2022/07/09 11:19:35;;;;;;;1999.90;999.90;;;;;;;28.82;32.68;100239.63;8266985;28;20046;-77
2022/07/09 11:23:37;;;;;;;1999.90;999.90;;;;;;;28.30;32.02;100231.47;8269103;28;20046;-77
2022/07/09 11:27:42;;;;;;;1999.90;999.90;;;;;;;27.87;34.06;100226.19;8259827;28;20441;-77
2022/07/09 11:31:51;;;;;;;1999.90;999.90;;;;;;;27.68;34.78;100217.59;8267565;28;20157;-77
2022/07/09 11:35:53;;;;;;;1999.90;999.90;;;;;;;28.08;34.72;100226.63;8281262;28;20049;-77
2022/07/09 11:39:54;;;;;;;;;;;;;;;27.85;32.83;100228.09;8263181;28;20066;-78
2022/07/09 11:43:56;;;;;;;1999.90;999.90;;;;;;;27.66;35.21;100223.03;8279630;28;20319;-78
2022/07/09 11:48:04;;;;;;;;;;;;;;;27.36;34.91;100220.38;8284961;28;20042;-76
2022/07/09 11:52:23;;;;;;;1999.90;999.90;;;;;;;27.09;36.46;100219.34;8284613;28;19936;-77
2022/07/09 11:56:25;;;;;;;1999.90;999.90;;;;;;;27.37;35.22;100205.25;8273438;28;20042;-76
2022/07/09 12:00:30;;;;;;;1999.90;999.90;;;;;;;28.05;35.75;100210.81;8283790;28;20256;-76
2022/07/09 12:04:32;;;;;;;1999.90;999.90;;;;;;;27.83;33.24;100195.28;8256943;28;20386;-76
2022/07/09 12:08:33;;;;;;;1999.90;999.90;;;;;;;27.59;34.85;100192.28;8252525;28;20073;-77
2022/07/09 12:12:36;;;;;;;1999.90;999.90;;;;;;;27.26;34.49;100199.69;8276285;28;20046;-77
2022/07/09 12:16:37;;;;;;;1999.90;999.90;;;;;;;27.09;36.93;100193.56;8284371;28;20157;-76
2022/07/09 12:20:39;;;;;;;;;;;;;;;27.00;36.95;100185.25;8291442;28;20080;-76
2022/07/09 12:24:40;;;;;;;1999.90;999.90;;;;;;;27.00;36.73;100193.25;8292822;28;19964;-77
2022/07/09 12:28:42;;;;;;;1999.90;999.90;;;;;;;26.97;36.01;100172.09;8294373;28;20133;-76
2022/07/09 12:32:43;;;;;;;;;;;;;;;26.91;36.02;100169.78;8271579;28;20053;-76
2022/07/09 12:36:45;;;;;;;1999.90;999.90;;;;;;;26.84;35.98;100165.75;8247321;28;19988;-77
2022/07/09 12:40:59;;;;;;;1999.90;999.90;;;;;;;26.89;36.21;100153.88;8294145;28;20057;-76
2022/07/09 12:45:01;;;;;;;1999.90;999.90;;;;;;;26.97;36.14;100151.63;8288283;28;20041;-76
2022/07/09 12:49:10;;;;;;;1999.90;999.90;;;;;;;27.07;35.75;100150.13;8283523;28;20056;-76
2022/07/09 12:53:12;;;;;;;;;;;;;;;27.29;34.94;100140.81;8265072;28;20488;-76
2022/07/09 12:57:13;;;;;;;1999.90;999.90;;;;;;;27.40;34.53;100128.53;8237752;28;20293;-76
2022/07/09 13:01:15;;;;;;;;;;;;;;;27.34;33.24;100128.94;8284639;28;20474;-77
2022/07/09 13:05:16;;;;;;;1999.90;999.90;;;;;;;27.20;33.94;100128.06;8254075;28;19929;-76
2022/07/09 13:09:18;;;;;;;1999.90;999.90;;;;;;;27.45;34.03;100130.06;8254244;28;20137;-76
2022/07/09 13:13:20;;;;;;;1999.90;999.90;;;;;;;27.83;35.22;100125.00;8290622;28;20049;-76
2022/07/09 13:17:21;;;;;;;1999.90;999.90;;;;;;;28.01;33.04;100118.50;8258035;28;20080;-76
2022/07/09 13:21:33;;;;;;;1999.90;999.90;;;;;;;28.52;33.34;100108.00;8293951;28;20460;-78
2022/07/09 13:25:35;;;;;;;1999.90;999.90;;;;;;;28.84;32.51;100108.50;8248596;28;20465;-78
2022/07/09 13:29:36;;;;;;;1999.90;999.90;;;;;;;28.99;30.72;100102.16;8265457;28;20045;-76
2022/07/09 13:33:38;;;;;;;1999.90;999.90;;;;;;;29.18;31.68;100105.25;8287807;28;20062;-78
2022/07/09 13:37:40;;;;;;;1999.90;999.90;;;;;;;29.68;31.83;100095.47;8270241;28;20048;-77
2022/07/09 13:41:41;;;;;;;1999.90;999.90;;;;;;;29.87;32.19;100095.00;8281487;28;20660;-77
2022/07/09 13:45:43;;;;;;;1999.90;999.90;;;;;;;29.89;30.37;100093.06;8261671;28;20049;-78
2022/07/09 13:49:44;;;;;;;1999.90;999.90;;;;;;;30.18;30.90;100082.91;8244291;28;20052;-77
2022/07/09 13:53:46;;;;;;;1999.90;999.90;;;;;;;30.37;30.55;100085.06;8266617;28;20077;-77
2022/07/09 13:57:47;;;;;;;1999.90;999.90;;;;;;;30.42;28.73;100076.66;8261654;28;20042;-77
2022/07/09 14:01:49;;;;;;;1999.90;999.90;;;;;;;30.41;28.90;100072.28;8264545;28;20478;-77
2022/07/09 14:05:51;;;;;;;1999.90;999.90;;;;;;;30.49;28.75;100064.50;8263854;28;20049;-78
2022/07/09 14:09:52;;;;;;;1999.90;999.90;;;;;;;30.54;28.51;100065.88;8278259;28;20125;-77
2022/07/09 14:13:55;;;;;;;1999.90;999.90;;;;;;;30.25;29.35;100073.44;8273158;28;20144;-77
2022/07/09 14:17:56;;;;;;;1999.90;999.90;;;;;;;29.90;29.64;100072.47;8287942;28;20130;-77
2022/07/09 14:21:58;;;;;;;1999.90;999.90;;;;;;;29.58;30.67;100069.47;8281591;28;20068;-77
2022/07/09 14:25:59;;;;;;;1999.90;999.90;;;;;;;29.42;30.27;100061.66;8270135;28;20047;-77
2022/07/09 14:30:01;;;;;;;1999.90;999.90;;;;;;;29.26;30.33;100056.53;8281791;28;20157;-77
2022/07/09 14:34:02;;;;;;;1999.90;999.90;;;;;;;29.18;31.66;100054.41;8282805;28;20080;-77
2022/07/09 14:38:04;;;;;;;1999.90;999.90;;;;;;;28.97;30.83;100055.09;8264550;28;20041;-77
2022/07/09 14:42:06;;;;;;;1999.90;999.90;;;;;;;29.04;31.87;100045.66;8278884;28;20057;-77
2022/07/09 14:46:08;;;;;;;1999.90;999.90;;;;;;;28.84;30.90;100044.34;8282627;28;20448;-77
2022/07/09 14:50:11;;;;;;;1999.90;999.90;;;;;;;28.76;31.44;100044.03;8257838;28;20061;-77
2022/07/09 14:54:12;;;;;;;1999.90;999.90;;;;;;;28.68;31.27;100022.31;8270093;28;20042;-77
2022/07/09 14:58:14;;;;;;;1999.90;999.90;;;;;;;29.11;31.30;100018.38;8275390;28;20754;-77
2022/07/09 15:02:15;;;;;;;1999.90;999.90;;;;;;;29.45;30.20;100022.22;8295481;28;20060;-77
2022/07/09 15:06:17;;;;;;;1999.90;999.90;;;;;;;29.26;30.92;100024.44;8280014;28;20034;-77
2022/07/09 15:10:19;;;;;;;1999.90;999.90;;;;;;;29.23;30.62;100018.47;8290435;28;20139;-77
2022/07/09 15:14:20;;;;;;;1999.90;999.90;;;;;;;29.00;30.71;100018.28;8287763;28;20056;-77
2022/07/09 15:18:23;;;;;;;1999.90;999.90;;;;;;;28.81;31.90;100018.69;8280888;28;20165;-77
2022/07/09 15:22:24;;;;;;;1999.90;999.90;;;;;;;28.98;31.71;100014.00;8275137;28;20486;-77
2022/07/09 15:26:45;;;;;;;1999.90;999.90;;;;;;;28.90;31.73;100003.84;8286598;28;20065;-77
2022/07/09 15:31:07;;;;;;;1999.90;999.90;;;;;;;28.70;31.78;99993.66;8288513;28;20587;-77
2022/07/09 15:35:11;;;;;;;1999.90;999.90;;;;;;;28.50;31.55;99995.91;8313131;28;20068;-77
2022/07/09 15:39:13;;;;;;;1999.90;999.90;;;;;;;28.21;32.22;99983.66;8288280;28;20033;-76
2022/07/09 15:43:14;;;;;;;;;;;;;;;28.06;32.07;99985.53;8309837;28;20128;-77
2022/07/09 15:47:17;;;;;;;1999.90;999.90;;;;;;;28.30;32.40;99980.38;8285787;28;19943;-77
2022/07/09 15:51:18;;;;;;;1999.90;999.90;;;;;;;28.62;31.35;99979.97;8304229;28;20049;-77
2022/07/09 15:55:19;;;;;;;;;;;;;;;28.67;31.37;99988.53;8273254;28;20073;-77
2022/07/09 15:59:21;;;;;;;1999.90;999.90;;;;;;;28.62;31.87;99978.16;8275447;28;20031;-77
2022/07/09 16:03:22;;;;;;;1999.90;999.90;;;;;;;28.53;31.38;99976.97;8286685;28;20188;-76
2022/07/09 16:07:24;;;;;;;;;;;;;;;28.36;31.53;99969.25;8307631;28;20132;-76
2022/07/09 16:15:46;;;;;;;1999.90;999.90;;;;;;;28.12;32.79;99968.25;8288288;28;20053;-76
2022/07/09 16:19:49;;;;;;;;;;;;;;;28.02;32.95;99965.34;8289516;28;20037;-77
2022/07/09 16:23:51;;;;;;;1999.90;999.90;;;;;;;27.86;33.44;99959.34;8302884;28;20236;-77
2022/07/09 16:27:53;;;;;;;1999.90;999.90;;;;;;;28.02;32.78;99953.81;8292331;28;20049;-77
2022/07/09 16:31:56;;;;;;;1999.90;999.90;;;;;;;28.30;33.08;99956.34;8304266;28;20401;-77
2022/07/09 16:35:57;;;;;;;1999.90;999.90;;;;;;;28.28;31.61;99952.91;8277240;28;20057;-77
2022/07/09 16:40:06;;;;;;;1999.90;999.90;;;;;;;28.17;33.30;99958.09;8269782;28;20092;-78
2022/07/09 16:44:07;;;;;;;1999.90;999.90;;;;;;;27.95;33.05;99956.88;8274901;28;20132;-78
2022/07/09 16:48:09;;;;;;;1999.90;999.90;;;;;;;27.83;33.08;99951.50;8252557;28;20042;-77
2022/07/09 16:52:10;;;;;;;;;;;;;;;27.62;33.65;99945.75;8257388;28;20129;-77
2022/07/09 16:56:12;;;;;;;1999.90;999.90;;;;;;;27.41;34.04;99950.69;8259646;28;20315;-77
2022/07/09 17:00:13;;;;;;;1999.90;999.90;;;;;;;27.21;33.98;99937.78;8272133;28;20078;-77
2022/07/09 17:04:17;;;;;;;1999.90;999.90;;;;;;;27.03;33.93;99937.16;8268350;28;20054;-77
2022/07/09 17:08:19;;;;;;;1999.90;999.90;;;;;;;26.89;34.57;99934.47;8286103;28;20406;-77
2022/07/09 17:12:20;;;;;;;1999.90;999.90;;;;;;;26.78;35.34;99930.69;8278927;28;20617;-77
2022/07/09 17:16:22;;;;;;;1999.90;999.90;;;;;;;26.66;34.71;99931.44;8250590;28;20570;-77
2022/07/09 17:20:23;;;;;;;;;;;;;;;26.55;34.32;99925.91;8270296;28;20077;-76
2022/07/09 17:24:25;;;;;;;1999.90;999.90;;;;;;;26.44;34.74;99923.91;8275868;28;19997;-77
2022/07/09 17:28:27;;;;;;;;;;;;;;;26.32;35.51;99924.63;8270248;28;20061;-77
2022/07/09 17:32:29;;;;;;;1999.90;999.90;;;;;;;26.26;35.61;99916.16;8266105;28;19929;-77
2022/07/09 17:36:31;;;;;;;1999.90;999.90;;;;;;;26.09;36.23;99912.72;8299118;28;20435;-77
2022/07/09 17:40:32;;;;;;;1999.90;999.90;;;;;;;25.99;37.25;99913.34;8296661;28;20065;-77
2022/07/09 17:44:34;;;;;;;1999.90;999.90;;;;;;;25.89;37.88;99918.38;8284714;28;20062;-77
2022/07/09 17:48:35;;;;;;;;;;;;;;;25.74;37.82;99917.47;8270109;28;20072;-77
2022/07/09 17:52:38;;;;;;;;;;;;;;;25.67;38.67;99918.72;8269811;28;19947;-77
2022/07/09 17:56:39;;;;;;;1999.90;999.90;;;;;;;25.55;39.32;99907.00;8305387;28;20034;-77
2022/07/09 18:00:41;;;;;;;1999.90;999.90;;;;;;;25.30;40.52;99912.84;8296729;28;20068;-77
2022/07/09 18:04:42;;;;;;;1999.90;999.90;;;;;;;25.21;41.13;99915.19;8303581;28;20409;-76